sensor_id;sensor_type;location;lat;lon;timestamp;P1;durP1;ratioP1;P2;durP2;ratioP2
72062;SDS011;59929;43.546;-5.702;2022-09-19T00:01:28;0.15;;;0.00;;
72062;SDS011;59929;43.546;-5.702;2022-09-19T00:04:03;0.00;;;0.00;;
72062;SDS011;59929;43.546;-5.702;2022-09-19T00:06:33;0.00;;;0.00;;
72062;SDS011;59929;43.546;-5.702;2022-09-19T00:09:02;0.28;;;0.00;;
72062;SDS011;59929;43.546;-5.702;2022-09-19T00:11:29;0.00;;;0.00;;
72062;SDS011;59929;43.546;-5.702;2022-09-19T00:13:57;0.22;;;0.00;;
72062;SDS011;59929;43.546;-5.702;2022-09-19T00:16:25;0.00;;;0.00;;
72062;SDS011;59929;43.546;-5.702;2022-09-19T00:18:53;0.20;;;0.00;;
72062;SDS011;59929;43.546;-5.702;2022-09-19T00:21:21;0.10;;;0.00;;
72062;SDS011;59929;43.546;-5.702;2022-09-19T00:23:49;0.03;;;0.00;;
72062;SDS011;59929;43.546;-5.702;2022-09-19T00:26:31;0.10;;;0.00;;
72062;SDS011;59929;43.546;-5.702;2022-09-19T00:28:57;0.00;;;0.00;;
72062;SDS011;59929;43.546;-5.702;2022-09-19T00:31:23;0.00;;;0.00;;
72062;SDS011;59929;43.546;-5.702;2022-09-19T00:33:49;0.00;;;0.00;;
72062;SDS011;59929;43.546;-5.702;2022-09-19T00:36:15;0.00;;;0.00;;
72062;SDS011;59929;43.546;-5.702;2022-09-19T00:38:42;0.08;;;0.00;;
72062;SDS011;59929;43.546;-5.702;2022-09-19T00:41:12;0.20;;;0.00;;
72062;SDS011;59929;43.546;-5.702;2022-09-19T00:43:56;0.10;;;0.00;;
72062;SDS011;59929;43.546;-5.702;2022-09-19T00:46:24;0.10;;;0.00;;
72062;SDS011;59929;43.546;-5.702;2022-09-19T00:48:57;0.47;;;0.00;;
72062;SDS011;59929;43.546;-5.702;2022-09-19T00:51:28;0.00;;;0.00;;
72062;SDS011;59929;43.546;-5.702;2022-09-19T00:53:58;0.00;;;0.00;;
72062;SDS011;59929;43.546;-5.702;2022-09-19T00:56:27;0.52;;;0.00;;
72062;SDS011;59929;43.546;-5.702;2022-09-19T00:58:54;0.55;;;0.00;;
72062;SDS011;59929;43.546;-5.702;2022-09-19T01:01:22;0.10;;;0.00;;
72062;SDS011;59929;43.546;-5.702;2022-09-19T01:03:48;0.00;;;0.00;;
72062;SDS011;59929;43.546;-5.702;2022-09-19T01:09:10;0.00;;;0.00;;
72062;SDS011;59929;43.546;-5.702;2022-09-19T01:14:53;0.03;;;0.00;;
72062;SDS011;59929;43.546;-5.702;2022-09-19T01:17:48;0.20;;;0.00;;
72062;SDS011;59929;43.546;-5.702;2022-09-19T01:29:15;0.10;;;0.00;;
72062;SDS011;59929;43.546;-5.702;2022-09-19T01:31:47;0.20;;;0.00;;
72062;SDS011;59929;43.546;-5.702;2022-09-19T01:34:20;0.60;;;0.00;;
72062;SDS011;59929;43.546;-5.702;2022-09-19T01:37:08;0.15;;;0.00;;
72062;SDS011;59929;43.546;-5.702;2022-09-19T01:39:44;0.15;;;0.00;;
72062;SDS011;59929;43.546;-5.702;2022-09-19T01:42:14;0.10;;;0.00;;
72062;SDS011;59929;43.546;-5.702;2022-09-19T01:44:43;0.10;;;0.00;;
72062;SDS011;59929;43.546;-5.702;2022-09-19T01:47:18;0.20;;;0.00;;
72062;SDS011;59929;43.546;-5.702;2022-09-19T01:50:06;0.05;;;0.00;;
72062;SDS011;59929;43.546;-5.702;2022-09-19T01:52:53;0.10;;;0.00;;
72062;SDS011;59929;43.546;-5.702;2022-09-19T01:58:28;0.00;;;0.00;;
72062;SDS011;59929;43.546;-5.702;2022-09-19T02:01:06;0.00;;;0.00;;
72062;SDS011;59929;43.546;-5.702;2022-09-19T02:03:48;0.13;;;0.00;;
72062;SDS011;59929;43.546;-5.702;2022-09-19T02:09:17;0.00;;;0.00;;
72062;SDS011;59929;43.546;-5.702;2022-09-19T02:11:54;0.10;;;0.00;;
72062;SDS011;59929;43.546;-5.702;2022-09-19T02:14:25;0.22;;;0.00;;
72062;SDS011;59929;43.546;-5.702;2022-09-19T02:16:57;0.00;;;0.00;;
72062;SDS011;59929;43.546;-5.702;2022-09-19T02:19:30;0.10;;;0.00;;
72062;SDS011;59929;43.546;-5.702;2022-09-19T02:22:00;0.20;;;0.00;;
72062;SDS011;59929;43.546;-5.702;2022-09-19T02:24:31;0.13;;;0.00;;
72062;SDS011;59929;43.546;-5.702;2022-09-19T02:27:02;0.20;;;0.00;;
72062;SDS011;59929;43.546;-5.702;2022-09-19T02:29:32;0.28;;;0.00;;
72062;SDS011;59929;43.546;-5.702;2022-09-19T02:32:01;0.30;;;0.00;;
72062;SDS011;59929;43.546;-5.702;2022-09-19T02:34:28;0.17;;;0.00;;
72062;SDS011;59929;43.546;-5.702;2022-09-19T02:36:59;0.15;;;0.00;;
72062;SDS011;59929;43.546;-5.702;2022-09-19T02:39:31;0.20;;;0.00;;
72062;SDS011;59929;43.546;-5.702;2022-09-19T02:42:11;0.10;;;0.00;;
72062;SDS011;59929;43.546;-5.702;2022-09-19T02:50:48;0.47;;;0.00;;
72062;SDS011;59929;43.546;-5.702;2022-09-19T02:53:23;0.17;;;0.00;;
72062;SDS011;59929;43.546;-5.702;2022-09-19T02:55:55;0.20;;;0.00;;
72062;SDS011;59929;43.546;-5.702;2022-09-19T02:58:26;0.22;;;0.00;;
72062;SDS011;59929;43.546;-5.702;2022-09-19T03:00:57;0.13;;;0.00;;
72062;SDS011;59929;43.546;-5.702;2022-09-19T03:03:29;0.60;;;0.00;;
72062;SDS011;59929;43.546;-5.702;2022-09-19T03:06:11;0.20;;;0.00;;
72062;SDS011;59929;43.546;-5.702;2022-09-19T03:08:40;0.43;;;0.00;;
72062;SDS011;59929;43.546;-5.702;2022-09-19T03:11:12;0.40;;;0.00;;
72062;SDS011;59929;43.546;-5.702;2022-09-19T03:13:42;0.17;;;0.00;;
72062;SDS011;59929;43.546;-5.702;2022-09-19T03:16:09;0.30;;;0.00;;
72062;SDS011;59929;43.546;-5.702;2022-09-19T03:18:39;0.10;;;0.00;;
72062;SDS011;59929;43.546;-5.702;2022-09-19T03:21:09;0.10;;;0.00;;
72062;SDS011;59929;43.546;-5.702;2022-09-19T03:23:40;0.10;;;0.00;;
72062;SDS011;59929;43.546;-5.702;2022-09-19T03:26:10;0.00;;;0.00;;
72062;SDS011;59929;43.546;-5.702;2022-09-19T03:28:38;0.28;;;0.00;;
72062;SDS011;59929;43.546;-5.702;2022-09-19T03:31:05;0.20;;;0.00;;
72062;SDS011;59929;43.546;-5.702;2022-09-19T03:33:32;0.08;;;0.00;;
72062;SDS011;59929;43.546;-5.702;2022-09-19T03:35:58;0.30;;;0.00;;
72062;SDS011;59929;43.546;-5.702;2022-09-19T03:38:27;0.08;;;0.00;;
72062;SDS011;59929;43.546;-5.702;2022-09-19T03:40:54;0.13;;;0.00;;
72062;SDS011;59929;43.546;-5.702;2022-09-19T03:43:19;0.00;;;0.00;;
72062;SDS011;59929;43.546;-5.702;2022-09-19T03:45:45;0.10;;;0.00;;
72062;SDS011;59929;43.546;-5.702;2022-09-19T03:48:11;0.10;;;0.00;;
72062;SDS011;59929;43.546;-5.702;2022-09-19T03:50:36;0.10;;;0.00;;
72062;SDS011;59929;43.546;-5.702;2022-09-19T03:53:02;0.40;;;0.00;;
72062;SDS011;59929;43.546;-5.702;2022-09-19T03:55:27;0.03;;;0.00;;
72062;SDS011;59929;43.546;-5.702;2022-09-19T03:57:53;0.93;;;0.00;;
72062;SDS011;59929;43.546;-5.702;2022-09-19T04:00:19;0.30;;;0.00;;
72062;SDS011;59929;43.546;-5.702;2022-09-19T04:02:44;0.20;;;0.00;;
72062;SDS011;59929;43.546;-5.702;2022-09-19T04:05:10;0.30;;;0.00;;
72062;SDS011;59929;43.546;-5.702;2022-09-19T04:07:38;0.00;;;0.00;;
72062;SDS011;59929;43.546;-5.702;2022-09-19T04:10:05;0.10;;;0.00;;
72062;SDS011;59929;43.546;-5.702;2022-09-19T04:12:31;0.30;;;0.00;;
72062;SDS011;59929;43.546;-5.702;2022-09-19T04:14:58;0.22;;;0.00;;
72062;SDS011;59929;43.546;-5.702;2022-09-19T04:17:25;0.43;;;0.00;;
72062;SDS011;59929;43.546;-5.702;2022-09-19T04:19:53;0.10;;;0.00;;
72062;SDS011;59929;43.546;-5.702;2022-09-19T04:22:19;0.47;;;0.00;;
72062;SDS011;59929;43.546;-5.702;2022-09-19T04:24:47;0.08;;;0.00;;
72062;SDS011;59929;43.546;-5.702;2022-09-19T04:27:13;0.00;;;0.00;;
72062;SDS011;59929;43.546;-5.702;2022-09-19T04:29:39;0.10;;;0.00;;
72062;SDS011;59929;43.546;-5.702;2022-09-19T04:32:06;0.25;;;0.00;;
72062;SDS011;59929;43.546;-5.702;2022-09-19T04:34:32;0.10;;;0.00;;
72062;SDS011;59929;43.546;-5.702;2022-09-19T04:36:59;0.30;;;0.00;;
72062;SDS011;59929;43.546;-5.702;2022-09-19T04:39:28;0.40;;;0.00;;
72062;SDS011;59929;43.546;-5.702;2022-09-19T04:41:55;0.20;;;0.00;;
72062;SDS011;59929;43.546;-5.702;2022-09-19T04:44:21;0.10;;;0.00;;
72062;SDS011;59929;43.546;-5.702;2022-09-19T04:46:47;0.10;;;0.00;;
72062;SDS011;59929;43.546;-5.702;2022-09-19T04:49:16;0.30;;;0.00;;
72062;SDS011;59929;43.546;-5.702;2022-09-19T04:51:42;0.08;;;0.00;;
72062;SDS011;59929;43.546;-5.702;2022-09-19T04:54:09;0.00;;;0.00;;
72062;SDS011;59929;43.546;-5.702;2022-09-19T04:56:35;0.00;;;0.00;;
72062;SDS011;59929;43.546;-5.702;2022-09-19T04:59:01;0.00;;;0.00;;
72062;SDS011;59929;43.546;-5.702;2022-09-19T05:01:28;0.55;;;0.00;;
72062;SDS011;59929;43.546;-5.702;2022-09-19T05:03:56;0.30;;;0.00;;
72062;SDS011;59929;43.546;-5.702;2022-09-19T05:06:22;0.27;;;0.00;;
72062;SDS011;59929;43.546;-5.702;2022-09-19T05:08:48;0.20;;;0.00;;
72062;SDS011;59929;43.546;-5.702;2022-09-19T05:11:15;0.28;;;0.00;;
72062;SDS011;59929;43.546;-5.702;2022-09-19T05:13:44;0.10;;;0.00;;
72062;SDS011;59929;43.546;-5.702;2022-09-19T05:16:09;0.65;;;0.00;;
72062;SDS011;59929;43.546;-5.702;2022-09-19T05:18:38;0.10;;;0.00;;
72062;SDS011;59929;43.546;-5.702;2022-09-19T05:21:06;0.52;;;0.00;;
72062;SDS011;59929;43.546;-5.702;2022-09-19T05:23:35;0.10;;;0.00;;
72062;SDS011;59929;43.546;-5.702;2022-09-19T05:26:03;0.28;;;0.00;;
72062;SDS011;59929;43.546;-5.702;2022-09-19T05:28:31;0.13;;;0.00;;
72062;SDS011;59929;43.546;-5.702;2022-09-19T05:30:57;0.10;;;0.00;;
72062;SDS011;59929;43.546;-5.702;2022-09-19T05:33:25;0.22;;;0.00;;
72062;SDS011;59929;43.546;-5.702;2022-09-19T05:35:53;0.35;;;0.00;;
72062;SDS011;59929;43.546;-5.702;2022-09-19T05:38:21;0.17;;;0.00;;
72062;SDS011;59929;43.546;-5.702;2022-09-19T05:40:50;1.10;;;0.00;;
72062;SDS011;59929;43.546;-5.702;2022-09-19T05:43:17;0.33;;;0.00;;
72062;SDS011;59929;43.546;-5.702;2022-09-19T05:45:43;0.30;;;0.00;;
72062;SDS011;59929;43.546;-5.702;2022-09-19T05:48:09;0.10;;;0.00;;
72062;SDS011;59929;43.546;-5.702;2022-09-19T05:50:35;0.30;;;0.00;;
72062;SDS011;59929;43.546;-5.702;2022-09-19T05:53:02;0.00;;;0.00;;
72062;SDS011;59929;43.546;-5.702;2022-09-19T05:55:40;0.00;;;0.00;;
72062;SDS011;59929;43.546;-5.702;2022-09-19T05:58:07;0.00;;;0.00;;
72062;SDS011;59929;43.546;-5.702;2022-09-19T06:00:34;0.00;;;0.00;;
72062;SDS011;59929;43.546;-5.702;2022-09-19T06:03:02;0.00;;;0.00;;
72062;SDS011;59929;43.546;-5.702;2022-09-19T06:05:30;0.10;;;0.00;;
72062;SDS011;59929;43.546;-5.702;2022-09-19T06:08:02;0.00;;;0.00;;
72062;SDS011;59929;43.546;-5.702;2022-09-19T06:10:32;0.10;;;0.00;;
72062;SDS011;59929;43.546;-5.702;2022-09-19T06:12:59;0.10;;;0.00;;
72062;SDS011;59929;43.546;-5.702;2022-09-19T06:15:25;0.20;;;0.00;;
72062;SDS011;59929;43.546;-5.702;2022-09-19T06:17:54;0.38;;;0.00;;
72062;SDS011;59929;43.546;-5.702;2022-09-19T06:20:20;0.10;;;0.00;;
72062;SDS011;59929;43.546;-5.702;2022-09-19T06:22:46;0.00;;;0.00;;
72062;SDS011;59929;43.546;-5.702;2022-09-19T06:25:12;0.00;;;0.00;;
72062;SDS011;59929;43.546;-5.702;2022-09-19T06:27:39;0.00;;;0.00;;
72062;SDS011;59929;43.546;-5.702;2022-09-19T06:30:05;0.43;;;0.00;;
72062;SDS011;59929;43.546;-5.702;2022-09-19T06:32:31;0.00;;;0.00;;
72062;SDS011;59929;43.546;-5.702;2022-09-19T06:34:57;0.30;;;0.00;;
72062;SDS011;59929;43.546;-5.702;2022-09-19T06:37:23;0.00;;;0.00;;
72062;SDS011;59929;43.546;-5.702;2022-09-19T06:39:48;0.22;;;0.00;;
72062;SDS011;59929;43.546;-5.702;2022-09-19T06:42:14;0.10;;;0.00;;
72062;SDS011;59929;43.546;-5.702;2022-09-19T06:44:39;0.20;;;0.00;;
72062;SDS011;59929;43.546;-5.702;2022-09-19T06:47:05;0.10;;;0.00;;
72062;SDS011;59929;43.546;-5.702;2022-09-19T06:49:31;0.10;;;0.00;;
72062;SDS011;59929;43.546;-5.702;2022-09-19T06:51:58;0.10;;;0.00;;
72062;SDS011;59929;43.546;-5.702;2022-09-19T06:54:24;0.10;;;0.00;;
72062;SDS011;59929;43.546;-5.702;2022-09-19T06:56:49;0.10;;;0.00;;
72062;SDS011;59929;43.546;-5.702;2022-09-19T06:59:16;0.00;;;0.00;;
72062;SDS011;59929;43.546;-5.702;2022-09-19T07:01:42;0.00;;;0.00;;
72062;SDS011;59929;43.546;-5.702;2022-09-19T07:04:10;0.10;;;0.00;;
72062;SDS011;59929;43.546;-5.702;2022-09-19T07:06:36;0.20;;;0.00;;
72062;SDS011;59929;43.546;-5.702;2022-09-19T07:09:03;0.20;;;0.00;;
72062;SDS011;59929;43.546;-5.702;2022-09-19T07:11:29;0.10;;;0.00;;
72062;SDS011;59929;43.546;-5.702;2022-09-19T07:13:56;0.00;;;0.00;;
72062;SDS011;59929;43.546;-5.702;2022-09-19T07:16:21;0.10;;;0.00;;
72062;SDS011;59929;43.546;-5.702;2022-09-19T07:18:47;0.00;;;0.00;;
72062;SDS011;59929;43.546;-5.702;2022-09-19T07:21:13;0.00;;;0.00;;
72062;SDS011;59929;43.546;-5.702;2022-09-19T07:23:39;0.00;;;0.00;;
72062;SDS011;59929;43.546;-5.702;2022-09-19T07:26:04;0.10;;;0.00;;
72062;SDS011;59929;43.546;-5.702;2022-09-19T07:28:30;0.00;;;0.00;;
72062;SDS011;59929;43.546;-5.702;2022-09-19T07:30:58;0.00;;;0.00;;
72062;SDS011;59929;43.546;-5.702;2022-09-19T07:33:24;0.00;;;0.00;;
72062;SDS011;59929;43.546;-5.702;2022-09-19T07:35:50;0.00;;;0.00;;
72062;SDS011;59929;43.546;-5.702;2022-09-19T07:38:19;0.00;;;0.00;;
72062;SDS011;59929;43.546;-5.702;2022-09-19T07:40:47;0.00;;;0.00;;
72062;SDS011;59929;43.546;-5.702;2022-09-19T07:43:13;0.00;;;0.00;;
72062;SDS011;59929;43.546;-5.702;2022-09-19T07:45:47;0.10;;;0.00;;
72062;SDS011;59929;43.546;-5.702;2022-09-19T07:48:15;0.10;;;0.00;;
72062;SDS011;59929;43.546;-5.702;2022-09-19T07:50:42;0.00;;;0.00;;
72062;SDS011;59929;43.546;-5.702;2022-09-19T07:53:13;0.00;;;0.00;;
72062;SDS011;59929;43.546;-5.702;2022-09-19T07:55:40;0.20;;;0.00;;
72062;SDS011;59929;43.546;-5.702;2022-09-19T07:58:08;0.20;;;0.00;;
72062;SDS011;59929;43.546;-5.702;2022-09-19T08:00:36;0.00;;;0.00;;
72062;SDS011;59929;43.546;-5.702;2022-09-19T08:03:04;0.00;;;0.00;;
72062;SDS011;59929;43.546;-5.702;2022-09-19T08:05:32;0.10;;;0.00;;
72062;SDS011;59929;43.546;-5.702;2022-09-19T08:07:59;0.05;;;0.00;;
72062;SDS011;59929;43.546;-5.702;2022-09-19T08:10:26;0.20;;;0.00;;
72062;SDS011;59929;43.546;-5.702;2022-09-19T08:12:52;0.30;;;0.00;;
72062;SDS011;59929;43.546;-5.702;2022-09-19T08:15:18;0.00;;;0.00;;
72062;SDS011;59929;43.546;-5.702;2022-09-19T08:20:23;0.10;;;0.00;;
72062;SDS011;59929;43.546;-5.702;2022-09-19T08:22:55;0.20;;;0.00;;
72062;SDS011;59929;43.546;-5.702;2022-09-19T08:25:22;0.10;;;0.00;;
72062;SDS011;59929;43.546;-5.702;2022-09-19T08:27:49;0.35;;;0.00;;
72062;SDS011;59929;43.546;-5.702;2022-09-19T08:30:16;0.20;;;0.00;;
72062;SDS011;59929;43.546;-5.702;2022-09-19T08:32:44;0.00;;;0.00;;
72062;SDS011;59929;43.546;-5.702;2022-09-19T08:35:11;0.00;;;0.00;;
72062;SDS011;59929;43.546;-5.702;2022-09-19T08:37:37;0.00;;;0.00;;
72062;SDS011;59929;43.546;-5.702;2022-09-19T08:40:02;0.00;;;0.00;;
72062;SDS011;59929;43.546;-5.702;2022-09-19T08:42:44;0.00;;;0.00;;
72062;SDS011;59929;43.546;-5.702;2022-09-19T08:45:34;0.08;;;0.00;;
72062;SDS011;59929;43.546;-5.702;2022-09-19T08:48:23;0.00;;;0.00;;
72062;SDS011;59929;43.546;-5.702;2022-09-19T08:51:03;0.00;;;0.00;;
72062;SDS011;59929;43.546;-5.702;2022-09-19T08:53:33;0.22;;;0.00;;
72062;SDS011;59929;43.546;-5.702;2022-09-19T08:56:05;0.00;;;0.00;;
72062;SDS011;59929;43.546;-5.702;2022-09-19T08:58:34;0.00;;;0.00;;
72062;SDS011;59929;43.546;-5.702;2022-09-19T09:01:07;0.00;;;0.00;;
72062;SDS011;59929;43.546;-5.702;2022-09-19T09:03:37;0.00;;;0.00;;
72062;SDS011;59929;43.546;-5.702;2022-09-19T09:06:33;0.00;;;0.00;;
72062;SDS011;59929;43.546;-5.702;2022-09-19T09:09:16;0.00;;;0.00;;
72062;SDS011;59929;43.546;-5.702;2022-09-19T09:12:09;0.00;;;0.00;;
72062;SDS011;59929;43.546;-5.702;2022-09-19T09:15:09;0.00;;;0.00;;
72062;SDS011;59929;43.546;-5.702;2022-09-19T09:17:51;0.00;;;0.00;;
72062;SDS011;59929;43.546;-5.702;2022-09-19T09:23:18;0.20;;;0.00;;
72062;SDS011;59929;43.546;-5.702;2022-09-19T09:25:54;0.00;;;0.00;;
72062;SDS011;59929;43.546;-5.702;2022-09-19T09:28:42;0.00;;;0.00;;
72062;SDS011;59929;43.546;-5.702;2022-09-19T09:31:14;0.00;;;0.00;;
72062;SDS011;59929;43.546;-5.702;2022-09-19T09:33:50;0.00;;;0.00;;
72062;SDS011;59929;43.546;-5.702;2022-09-19T09:36:23;0.00;;;0.00;;
72062;SDS011;59929;43.546;-5.702;2022-09-19T09:39:01;0.00;;;0.00;;
72062;SDS011;59929;43.546;-5.702;2022-09-19T09:41:39;0.10;;;0.00;;
72062;SDS011;59929;43.546;-5.702;2022-09-19T09:47:20;0.00;;;0.00;;
72062;SDS011;59929;43.546;-5.702;2022-09-19T09:50:00;0.00;;;0.00;;
72062;SDS011;59929;43.546;-5.702;2022-09-19T09:52:43;0.00;;;0.00;;
72062;SDS011;59929;43.546;-5.702;2022-09-19T09:58:17;0.00;;;0.00;;
72062;SDS011;59929;43.546;-5.702;2022-09-19T10:00:54;0.00;;;0.00;;
72062;SDS011;59929;43.546;-5.702;2022-09-19T10:03:52;0.00;;;0.00;;
72062;SDS011;59929;43.546;-5.702;2022-09-19T10:06:32;0.00;;;0.00;;
72062;SDS011;59929;43.546;-5.702;2022-09-19T10:09:12;0.00;;;0.00;;
72062;SDS011;59929;43.546;-5.702;2022-09-19T10:11:44;0.00;;;0.00;;
72062;SDS011;59929;43.546;-5.702;2022-09-19T10:14:17;0.00;;;0.00;;
72062;SDS011;59929;43.546;-5.702;2022-09-19T10:16:45;0.03;;;0.00;;
72062;SDS011;59929;43.546;-5.702;2022-09-19T10:22:11;0.00;;;0.00;;
72062;SDS011;59929;43.546;-5.702;2022-09-19T10:24:41;0.00;;;0.00;;
72062;SDS011;59929;43.546;-5.702;2022-09-19T10:27:10;0.00;;;0.00;;
72062;SDS011;59929;43.546;-5.702;2022-09-19T10:29:48;0.00;;;0.00;;
72062;SDS011;59929;43.546;-5.702;2022-09-19T10:32:27;0.00;;;0.00;;
72062;SDS011;59929;43.546;-5.702;2022-09-19T10:35:35;0.00;;;0.00;;
72062;SDS011;59929;43.546;-5.702;2022-09-19T10:38:04;0.00;;;0.00;;
72062;SDS011;59929;43.546;-5.702;2022-09-19T10:40:56;0.00;;;0.00;;
72062;SDS011;59929;43.546;-5.702;2022-09-19T10:43:32;0.00;;;0.00;;
72062;SDS011;59929;43.546;-5.702;2022-09-19T10:46:19;0.00;;;0.00;;
72062;SDS011;59929;43.546;-5.702;2022-09-19T10:48:49;0.00;;;0.00;;
72062;SDS011;59929;43.546;-5.702;2022-09-19T10:51:18;0.00;;;0.00;;
72062;SDS011;59929;43.546;-5.702;2022-09-19T10:53:46;0.00;;;0.00;;
72062;SDS011;59929;43.546;-5.702;2022-09-19T10:56:21;0.00;;;0.00;;
72062;SDS011;59929;43.546;-5.702;2022-09-19T10:59:04;0.00;;;0.00;;
72062;SDS011;59929;43.546;-5.702;2022-09-19T11:01:39;0.00;;;0.00;;
72062;SDS011;59929;43.546;-5.702;2022-09-19T11:04:21;0.00;;;0.00;;
72062;SDS011;59929;43.546;-5.702;2022-09-19T11:06:56;0.03;;;0.00;;
72062;SDS011;59929;43.546;-5.702;2022-09-19T11:09:25;0.00;;;0.00;;
72062;SDS011;59929;43.546;-5.702;2022-09-19T11:12:02;0.00;;;0.00;;
72062;SDS011;59929;43.546;-5.702;2022-09-19T11:14:30;0.00;;;0.00;;
72062;SDS011;59929;43.546;-5.702;2022-09-19T11:17:05;0.00;;;0.00;;
72062;SDS011;59929;43.546;-5.702;2022-09-19T11:19:56;0.00;;;0.00;;
72062;SDS011;59929;43.546;-5.702;2022-09-19T11:22:50;0.22;;;0.00;;
72062;SDS011;59929;43.546;-5.702;2022-09-19T11:25:49;0.00;;;0.00;;
72062;SDS011;59929;43.546;-5.702;2022-09-19T11:31:42;0.00;;;0.00;;
72062;SDS011;59929;43.546;-5.702;2022-09-19T11:34:47;0.00;;;0.00;;
72062;SDS011;59929;43.546;-5.702;2022-09-19T11:37:28;0.00;;;0.00;;
72062;SDS011;59929;43.546;-5.702;2022-09-19T11:40:17;0.00;;;0.00;;
72062;SDS011;59929;43.546;-5.702;2022-09-19T11:46:05;0.00;;;0.00;;
72062;SDS011;59929;43.546;-5.702;2022-09-19T11:48:54;0.00;;;0.00;;
72062;SDS011;59929;43.546;-5.702;2022-09-19T11:54:40;0.00;;;0.00;;
72062;SDS011;59929;43.546;-5.702;2022-09-19T11:57:32;0.00;;;0.00;;
72062;SDS011;59929;43.546;-5.702;2022-09-19T12:00:15;0.00;;;0.00;;
72062;SDS011;59929;43.546;-5.702;2022-09-19T12:05:59;0.00;;;0.00;;
72062;SDS011;59929;43.546;-5.702;2022-09-19T12:09:05;0.07;;;0.00;;
72062;SDS011;59929;43.546;-5.702;2022-09-19T12:11:41;0.22;;;0.00;;
72062;SDS011;59929;43.546;-5.702;2022-09-19T12:14:24;0.10;;;0.00;;
72062;SDS011;59929;43.546;-5.702;2022-09-19T12:17:01;0.00;;;0.00;;
72062;SDS011;59929;43.546;-5.702;2022-09-19T12:19:32;0.00;;;0.00;;
72062;SDS011;59929;43.546;-5.702;2022-09-19T12:22:11;0.00;;;0.00;;
72062;SDS011;59929;43.546;-5.702;2022-09-19T12:24:41;0.00;;;0.00;;
72062;SDS011;59929;43.546;-5.702;2022-09-19T12:27:23;0.10;;;0.00;;
72062;SDS011;59929;43.546;-5.702;2022-09-19T12:30:06;0.00;;;0.00;;
72062;SDS011;59929;43.546;-5.702;2022-09-19T12:38:18;0.00;;;0.00;;
72062;SDS011;59929;43.546;-5.702;2022-09-19T12:40:59;0.00;;;0.00;;
72062;SDS011;59929;43.546;-5.702;2022-09-19T12:43:36;0.10;;;0.00;;
72062;SDS011;59929;43.546;-5.702;2022-09-19T12:49:08;0.03;;;0.00;;
72062;SDS011;59929;43.546;-5.702;2022-09-19T12:51:54;0.00;;;0.00;;
72062;SDS011;59929;43.546;-5.702;2022-09-19T12:54:44;0.00;;;0.00;;
72062;SDS011;59929;43.546;-5.702;2022-09-19T12:57:25;0.00;;;0.00;;
72062;SDS011;59929;43.546;-5.702;2022-09-19T12:59:57;0.00;;;0.00;;
72062;SDS011;59929;43.546;-5.702;2022-09-19T13:02:26;0.00;;;0.00;;
72062;SDS011;59929;43.546;-5.702;2022-09-19T13:04:58;0.00;;;0.00;;
72062;SDS011;59929;43.546;-5.702;2022-09-19T13:07:40;0.10;;;0.00;;
72062;SDS011;59929;43.546;-5.702;2022-09-19T13:10:30;0.30;;;0.00;;
72062;SDS011;59929;43.546;-5.702;2022-09-19T13:13:12;0.15;;;0.00;;
72062;SDS011;59929;43.546;-5.702;2022-09-19T13:15:59;0.00;;;0.00;;
72062;SDS011;59929;43.546;-5.702;2022-09-19T13:18:30;0.00;;;0.00;;
72062;SDS011;59929;43.546;-5.702;2022-09-19T13:21:15;0.10;;;0.00;;
72062;SDS011;59929;43.546;-5.702;2022-09-19T13:24:01;0.00;;;0.00;;
72062;SDS011;59929;43.546;-5.702;2022-09-19T13:26:30;0.00;;;0.00;;
72062;SDS011;59929;43.546;-5.702;2022-09-19T13:29:03;0.03;;;0.00;;
72062;SDS011;59929;43.546;-5.702;2022-09-19T13:31:57;0.00;;;0.00;;
72062;SDS011;59929;43.546;-5.702;2022-09-19T13:34:59;0.00;;;0.00;;
72062;SDS011;59929;43.546;-5.702;2022-09-19T13:37:46;0.10;;;0.00;;
72062;SDS011;59929;43.546;-5.702;2022-09-19T13:40:24;0.00;;;0.00;;
72062;SDS011;59929;43.546;-5.702;2022-09-19T13:43:10;0.00;;;0.00;;
72062;SDS011;59929;43.546;-5.702;2022-09-19T13:45:47;0.00;;;0.00;;
72062;SDS011;59929;43.546;-5.702;2022-09-19T13:48:26;0.00;;;0.00;;
72062;SDS011;59929;43.546;-5.702;2022-09-19T13:57:11;0.55;;;0.35;;
72062;SDS011;59929;43.546;-5.702;2022-09-19T13:59:48;0.50;;;0.30;;
72062;SDS011;59929;43.546;-5.702;2022-09-19T14:02:25;0.63;;;0.40;;
72062;SDS011;59929;43.546;-5.702;2022-09-19T14:05:01;1.40;;;1.20;;
72062;SDS011;59929;43.546;-5.702;2022-09-19T14:07:36;1.05;;;0.80;;
72062;SDS011;59929;43.546;-5.702;2022-09-19T14:10:27;2.05;;;1.85;;
72062;SDS011;59929;43.546;-5.702;2022-09-19T14:16:08;3.80;;;3.50;;
72062;SDS011;59929;43.546;-5.702;2022-09-19T14:18:42;3.97;;;3.67;;
72062;SDS011;59929;43.546;-5.702;2022-09-19T14:24:13;8.60;;;8.10;;
72062;SDS011;59929;43.546;-5.702;2022-09-19T14:26:49;8.18;;;7.68;;
72062;SDS011;59929;43.546;-5.702;2022-09-19T14:29:39;10.77;;;10.18;;
72062;SDS011;59929;43.546;-5.702;2022-09-19T14:32:23;11.20;;;10.60;;
72062;SDS011;59929;43.546;-5.702;2022-09-19T14:35:01;11.15;;;10.55;;
72062;SDS011;59929;43.546;-5.702;2022-09-19T14:40:55;12.88;;;12.18;;
72062;SDS011;59929;43.546;-5.702;2022-09-19T14:43:40;11.88;;;11.27;;
72062;SDS011;59929;43.546;-5.702;2022-09-19T14:46:39;12.93;;;12.23;;
72062;SDS011;59929;43.546;-5.702;2022-09-19T14:49:20;11.50;;;10.90;;
72062;SDS011;59929;43.546;-5.702;2022-09-19T14:52:03;15.25;;;14.45;;
72062;SDS011;59929;43.546;-5.702;2022-09-19T14:54:36;14.88;;;14.07;;
72062;SDS011;59929;43.546;-5.702;2022-09-19T14:57:14;16.45;;;15.65;;
72062;SDS011;59929;43.546;-5.702;2022-09-19T14:59:41;18.20;;;17.30;;
72062;SDS011;59929;43.546;-5.702;2022-09-19T15:07:41;14.43;;;13.68;;
72062;SDS011;59929;43.546;-5.702;2022-09-19T15:12:57;15.30;;;14.50;;
72062;SDS011;59929;43.546;-5.702;2022-09-19T15:15:45;15.23;;;14.43;;
72062;SDS011;59929;43.546;-5.702;2022-09-19T15:18:20;14.00;;;13.30;;
72062;SDS011;59929;43.546;-5.702;2022-09-19T15:20:50;10.55;;;9.95;;
72062;SDS011;59929;43.546;-5.702;2022-09-19T15:23:20;10.05;;;9.45;;
72062;SDS011;59929;43.546;-5.702;2022-09-19T15:25:47;8.80;;;8.30;;
72062;SDS011;59929;43.546;-5.702;2022-09-19T15:28:21;9.35;;;8.85;;
72062;SDS011;59929;43.546;-5.702;2022-09-19T15:30:52;9.32;;;8.82;;
72062;SDS011;59929;43.546;-5.702;2022-09-19T15:33:21;12.23;;;11.53;;
72062;SDS011;59929;43.546;-5.702;2022-09-19T15:35:48;11.02;;;10.43;;
72062;SDS011;59929;43.546;-5.702;2022-09-19T15:38:21;8.73;;;8.23;;
72062;SDS011;59929;43.546;-5.702;2022-09-19T15:40:54;9.15;;;8.65;;
72062;SDS011;59929;43.546;-5.702;2022-09-19T15:43:22;9.25;;;8.75;;
72062;SDS011;59929;43.546;-5.702;2022-09-19T15:45:49;8.07;;;7.57;;
72062;SDS011;59929;43.546;-5.702;2022-09-19T15:48:20;8.05;;;7.55;;
72062;SDS011;59929;43.546;-5.702;2022-09-19T15:50:50;7.10;;;6.70;;
72062;SDS011;59929;43.546;-5.702;2022-09-19T15:53:27;7.57;;;7.07;;
72062;SDS011;59929;43.546;-5.702;2022-09-19T15:55:58;7.45;;;6.97;;
72062;SDS011;59929;43.546;-5.702;2022-09-19T15:58:30;6.20;;;5.80;;
72062;SDS011;59929;43.546;-5.702;2022-09-19T16:01:00;6.72;;;6.32;;
72062;SDS011;59929;43.546;-5.702;2022-09-19T16:03:35;6.38;;;5.97;;
72062;SDS011;59929;43.546;-5.702;2022-09-19T16:06:05;5.78;;;5.38;;
72062;SDS011;59929;43.546;-5.702;2022-09-19T16:08:58;6.75;;;6.35;;
72062;SDS011;59929;43.546;-5.702;2022-09-19T16:11:27;6.33;;;5.93;;
72062;SDS011;59929;43.546;-5.702;2022-09-19T16:14:03;6.57;;;6.18;;
72062;SDS011;59929;43.546;-5.702;2022-09-19T16:16:35;6.90;;;6.50;;
72062;SDS011;59929;43.546;-5.702;2022-09-19T16:19:02;6.28;;;5.88;;
72062;SDS011;59929;43.546;-5.702;2022-09-19T16:21:33;5.00;;;4.70;;
72062;SDS011;59929;43.546;-5.702;2022-09-19T16:24:07;5.63;;;5.22;;
72062;SDS011;59929;43.546;-5.702;2022-09-19T16:26:37;5.25;;;4.85;;
72062;SDS011;59929;43.546;-5.702;2022-09-19T16:29:03;5.40;;;5.00;;
72062;SDS011;59929;43.546;-5.702;2022-09-19T16:31:31;4.87;;;4.57;;
72062;SDS011;59929;43.546;-5.702;2022-09-19T16:34:15;4.20;;;3.90;;